Thargomindah, Australia
Current Conditions -  °F | °C
As of 3:00 AM on Tuesday 23 Dec 2014 (Local Time) from YBCV Reporting Station
Clear Clear  
Wind Chill: 26°   Ceiling: Unl
Heat Index: 27°   Visibility: 6mi
Dew Point: 17°   Wind: 7mph
Humidity: 57%   Direction: 20°NNE
Pressure: 29.85"   Gusts: NA
Location:  28°S, 143.82°E
Report Text: YBCV 221700Z AUTO 02006KT 9999 // NCD 26/17 Q1011
Loading
Personal Weather Stations






























Interactive Weather Map New forecast layout! Learn more

10-Day Weather Forecast

Advertisements
Track Severe Weather on mobile